createdAt,value
2022-10-02T00:02:52.909Z,100.00
2022-10-02T00:06:09.490Z,100.00
2022-10-02T00:09:25.205Z,100.00
2022-10-02T00:12:38.036Z,100.00
2022-10-02T00:15:50.420Z,100.00
2022-10-02T00:19:04.764Z,100.00
2022-10-02T00:22:39.830Z,100.00
2022-10-02T00:25:56.216Z,100.00
2022-10-02T00:29:17.026Z,100.00
2022-10-02T00:32:35.309Z,100.00
2022-10-02T00:36:06.570Z,100.00
2022-10-02T00:39:29.587Z,100.00
2022-10-02T00:43:07.697Z,100.00
2022-10-02T00:46:49.044Z,100.00
2022-10-02T00:50:11.033Z,100.00
2022-10-02T00:53:30.198Z,100.00
2022-10-02T00:56:48.130Z,100.00
2022-10-02T01:00:09.489Z,100.00
2022-10-02T01:03:27.170Z,100.00
2022-10-02T01:06:38.836Z,100.00
2022-10-02T01:09:51.920Z,100.00
2022-10-02T01:13:04.932Z,100.00
2022-10-02T01:16:19.415Z,100.00
2022-10-02T01:19:37.579Z,100.00
2022-10-02T01:22:55.994Z,100.00
2022-10-02T01:26:08.215Z,100.00
2022-10-02T01:29:19.939Z,100.00
2022-10-02T01:32:33.414Z,100.00
2022-10-02T01:35:46.503Z,100.00
2022-10-02T01:39:00.040Z,100.00
2022-10-02T01:42:11.965Z,100.00
2022-10-02T01:45:28.061Z,100.00
2022-10-02T01:48:55.494Z,100.00
2022-10-02T01:52:31.465Z,100.00
2022-10-02T01:55:49.115Z,100.00
2022-10-02T01:59:08.910Z,100.00
2022-10-02T02:02:28.091Z,100.00
2022-10-02T02:05:49.533Z,100.00
2022-10-02T02:09:10.046Z,100.00
2022-10-02T02:12:25.386Z,100.00
2022-10-02T02:15:44.067Z,100.00
2022-10-02T02:19:02.309Z,100.00
2022-10-02T02:22:18.185Z,100.00
2022-10-02T02:25:34.655Z,100.00
2022-10-02T02:28:50.672Z,100.00
2022-10-02T02:32:03.653Z,100.00
2022-10-02T02:35:20.553Z,100.00
2022-10-02T02:38:36.355Z,100.00
2022-10-02T02:41:52.256Z,100.00
2022-10-02T02:45:09.059Z,100.00
2022-10-02T02:48:26.046Z,100.00
2022-10-02T02:51:42.404Z,100.00
2022-10-02T02:54:59.156Z,100.00
2022-10-02T02:58:15.370Z,100.00
2022-10-02T03:01:27.267Z,100.00
2022-10-02T03:04:39.250Z,100.00
2022-10-02T03:07:57.078Z,100.00
2022-10-02T03:11:18.676Z,100.00
2022-10-02T03:14:55.858Z,100.00
2022-10-02T03:18:34.244Z,100.00
2022-10-02T03:21:52.793Z,100.00
2022-10-02T03:25:10.349Z,100.00
2022-10-02T03:28:53.945Z,100.00
2022-10-02T03:31:43.540Z,100.00
2022-10-02T03:34:57.161Z,100.00
2022-10-02T03:38:12.389Z,100.00
2022-10-02T03:41:24.203Z,100.00
2022-10-02T03:44:35.712Z,100.00
2022-10-02T03:47:47.238Z,100.00
2022-10-02T03:50:59.067Z,100.00
2022-10-02T03:54:16.641Z,100.00
2022-10-02T03:57:30.235Z,100.00
2022-10-02T04:00:47.635Z,100.00
2022-10-02T04:04:04.194Z,100.00
2022-10-02T04:07:23.007Z,100.00
2022-10-02T04:10:45.112Z,100.00
2022-10-02T04:14:02.528Z,100.00
2022-10-02T04:17:20.049Z,100.00
2022-10-02T04:20:37.265Z,100.00
2022-10-02T04:23:56.477Z,100.00
2022-10-02T04:27:15.641Z,100.00
2022-10-02T04:30:30.006Z,100.00
2022-10-02T04:33:42.666Z,100.00
2022-10-02T04:37:09.067Z,100.00
2022-10-02T04:40:50.432Z,100.00
2022-10-02T04:44:12.229Z,100.00
2022-10-02T04:47:43.215Z,100.00
2022-10-02T04:51:01.551Z,100.00
2022-10-02T04:54:35.652Z,100.00
2022-10-02T04:58:20.823Z,100.00
2022-10-02T05:01:45.861Z,100.00
2022-10-02T05:05:22.397Z,100.00
2022-10-02T05:09:01.418Z,100.00
2022-10-02T05:12:40.689Z,100.00
2022-10-02T05:16:10.116Z,100.00
2022-10-02T05:19:46.589Z,100.00
2022-10-02T05:23:14.163Z,100.00
2022-10-02T05:26:55.661Z,100.00
2022-10-02T05:30:15.248Z,100.00
2022-10-02T05:33:55.246Z,100.00
2022-10-02T05:37:25.079Z,100.00
2022-10-02T05:40:43.526Z,100.00
2022-10-02T05:44:01.152Z,100.00
2022-10-02T05:47:21.815Z,100.00
2022-10-02T05:50:39.708Z,100.00
2022-10-02T05:53:57.328Z,100.00
2022-10-02T05:57:17.078Z,100.00
2022-10-02T06:00:39.056Z,100.00
2022-10-02T06:03:55.704Z,100.00
2022-10-02T06:07:12.814Z,100.00
2022-10-02T06:10:29.340Z,100.00
2022-10-02T06:13:47.215Z,100.00
2022-10-02T06:17:03.716Z,100.00
2022-10-02T06:20:25.315Z,100.00
2022-10-02T06:23:41.749Z,100.00
2022-10-02T06:27:00.707Z,100.00
2022-10-02T06:30:17.076Z,100.00
2022-10-02T06:33:32.137Z,100.00
2022-10-02T06:37:25.849Z,100.00
2022-10-02T06:40:52.690Z,100.00
2022-10-02T06:44:22.162Z,100.00
2022-10-02T06:47:45.395Z,100.00
2022-10-02T06:51:05.101Z,100.00
2022-10-02T06:54:37.494Z,100.00
2022-10-02T06:58:17.103Z,100.00
2022-10-02T07:01:41.168Z,100.00
2022-10-02T07:05:13.479Z,100.00
2022-10-02T07:08:37.422Z,100.00
2022-10-02T07:11:58.152Z,100.00
2022-10-02T07:34:35.978Z,100.00
2022-10-02T07:37:54.626Z,100.00
2022-10-02T07:41:12.793Z,100.00
2022-10-02T07:45:11.401Z,100.00
2022-10-02T07:48:57.934Z,100.00
2022-10-02T07:55:25.988Z,97.87
2022-10-02T07:58:45.186Z,97.03
2022-10-02T08:01:58.795Z,94.19
2022-10-02T08:05:20.942Z,91.45
2022-10-02T08:08:39.016Z,88.91
2022-10-02T08:18:34.553Z,83.78
2022-10-02T08:30:48.692Z,82.74
2022-10-02T08:34:02.002Z,84.30
2022-10-02T08:37:38.032Z,82.98
2022-10-02T08:41:21.981Z,84.59
2022-10-02T08:44:59.551Z,80.16
2022-10-02T08:49:04.938Z,78.42
2022-10-02T08:53:03.589Z,80.53
2022-10-02T08:57:01.900Z,80.92
2022-10-02T09:00:29.175Z,82.45
2022-10-02T09:04:41.493Z,85.18
2022-10-02T09:08:47.976Z,86.70
2022-10-02T09:12:51.117Z,86.55
2022-10-02T09:16:14.521Z,87.11
2022-10-02T09:19:45.796Z,83.52
2022-10-02T09:23:32.464Z,86.08
2022-10-02T09:27:37.623Z,86.90
2022-10-02T09:31:33.715Z,85.05
2022-10-02T09:35:26.041Z,85.34
2022-10-02T09:39:18.277Z,87.96
2022-10-02T09:43:05.474Z,87.03
2022-10-02T09:46:58.795Z,87.32
2022-10-02T09:50:36.389Z,86.84
2022-10-02T09:54:08.985Z,88.64
2022-10-02T09:58:06.350Z,90.02
2022-10-02T10:01:51.711Z,91.64
2022-10-02T10:05:56.270Z,94.00
2022-10-02T10:09:44.261Z,91.69
2022-10-02T10:13:32.739Z,91.21
2022-10-02T10:17:44.536Z,91.11
2022-10-02T10:21:40.424Z,87.95
2022-10-02T10:25:25.994Z,83.46
2022-10-02T10:29:13.159Z,82.31
2022-10-02T10:33:27.977Z,83.11
2022-10-02T10:37:20.083Z,82.85
2022-10-02T10:40:46.886Z,83.49
2022-10-02T10:44:36.349Z,83.35
2022-10-02T10:48:28.654Z,84.27
2022-10-02T10:51:47.510Z,81.45
2022-10-02T10:55:21.932Z,82.73
2022-10-02T10:58:42.142Z,82.42
2022-10-02T11:02:03.315Z,83.42
2022-10-02T11:06:13.620Z,81.67
2022-10-02T11:25:23.706Z,79.80
2022-10-02T11:29:25.783Z,80.65
2022-10-02T11:33:10.810Z,81.19
2022-10-02T11:36:49.324Z,81.67
2022-10-02T11:40:40.567Z,83.91
2022-10-02T11:44:22.222Z,81.33
2022-10-02T11:48:18.856Z,81.20
2022-10-02T11:52:29.466Z,81.64
2022-10-02T11:56:03.592Z,83.01
2022-10-02T11:59:35.097Z,82.05
2022-10-02T12:02:55.628Z,76.55
2022-10-02T12:06:15.355Z,77.82
2022-10-02T12:09:36.085Z,75.49
2022-10-02T12:12:55.637Z,73.59
2022-10-02T12:16:16.497Z,73.34
2022-10-02T12:19:38.670Z,75.01
2022-10-02T12:23:13.231Z,76.83
2022-10-02T12:26:55.732Z,78.44
2022-10-02T12:30:17.302Z,84.36
2022-10-02T12:33:41.050Z,91.26
2022-10-02T12:37:00.787Z,93.78
2022-10-02T12:40:23.430Z,95.48
2022-10-02T12:44:13.554Z,95.79
2022-10-02T12:47:41.615Z,95.42
2022-10-02T12:51:09.718Z,93.89
2022-10-02T12:55:20.126Z,92.53
2022-10-02T12:58:49.926Z,90.24
2022-10-02T13:02:59.881Z,91.42
2022-10-02T13:06:29.795Z,90.22
2022-10-02T13:09:50.799Z,88.44
2022-10-02T13:13:24.924Z,87.74
2022-10-02T13:16:43.945Z,86.66
2022-10-02T13:20:09.011Z,86.43
2022-10-02T13:23:32.187Z,87.85
2022-10-02T13:26:51.910Z,87.22
2022-10-02T13:30:21.436Z,88.25
2022-10-02T13:34:08.700Z,86.64
2022-10-02T13:37:45.213Z,82.92
2022-10-02T13:41:03.001Z,80.14
2022-10-02T13:44:25.320Z,77.86
2022-10-02T13:47:59.848Z,77.67
2022-10-02T13:51:18.666Z,78.04
2022-10-02T13:54:56.419Z,78.71
2022-10-02T13:58:35.205Z,77.58
2022-10-02T14:01:58.976Z,75.46
2022-10-02T14:05:19.015Z,76.91
2022-10-02T14:08:59.899Z,76.68
2022-10-02T14:12:34.488Z,74.70
2022-10-02T14:16:08.620Z,75.73
2022-10-02T14:19:37.946Z,75.31
2022-10-02T14:23:02.505Z,76.14
2022-10-02T14:26:24.609Z,76.36
2022-10-02T14:29:48.757Z,75.64
2022-10-02T14:33:09.069Z,77.44
2022-10-02T14:36:25.261Z,83.92
2022-10-02T14:39:42.203Z,87.65
2022-10-02T14:43:20.966Z,100.00
2022-10-02T14:47:03.433Z,100.00
2022-10-02T14:50:51.837Z,100.00
2022-10-02T14:54:16.031Z,100.00
2022-10-02T14:57:46.294Z,100.00
2022-10-02T15:01:21.467Z,100.00
2022-10-02T15:04:45.093Z,100.00
2022-10-02T15:07:58.477Z,100.00
2022-10-02T15:11:19.422Z,100.00
2022-10-02T15:14:39.932Z,100.00
2022-10-02T15:18:05.786Z,100.00
2022-10-02T15:21:31.025Z,100.00
2022-10-02T15:24:50.882Z,100.00
2022-10-02T15:28:34.523Z,100.00
2022-10-02T15:31:31.508Z,100.00
2022-10-02T15:34:48.305Z,100.00
2022-10-02T15:38:26.241Z,100.00
2022-10-02T15:41:44.861Z,100.00
2022-10-02T15:45:25.704Z,100.00
2022-10-02T15:49:07.806Z,100.00
2022-10-02T15:52:29.763Z,100.00
2022-10-02T15:55:48.078Z,100.00
2022-10-02T15:59:16.193Z,100.00
2022-10-02T16:03:12.282Z,100.00
2022-10-02T16:06:41.514Z,100.00
2022-10-02T16:10:02.267Z,100.00
2022-10-02T16:13:34.876Z,100.00
2022-10-02T16:17:13.679Z,100.00
2022-10-02T16:21:02.339Z,100.00
2022-10-02T16:24:43.177Z,100.00
2022-10-02T16:28:08.911Z,100.00
2022-10-02T16:31:47.465Z,100.00
2022-10-02T16:35:43.932Z,100.00
2022-10-02T16:39:00.994Z,100.00
2022-10-02T16:42:21.669Z,100.00
2022-10-02T16:45:56.606Z,100.00
2022-10-02T16:49:15.653Z,100.00
2022-10-02T16:52:33.748Z,100.00
2022-10-02T16:55:49.695Z,100.00
2022-10-02T16:59:11.775Z,100.00
2022-10-02T17:02:30.266Z,100.00
2022-10-02T17:05:51.095Z,100.00
2022-10-02T17:09:09.794Z,100.00
2022-10-02T17:12:28.201Z,100.00
2022-10-02T17:15:48.219Z,100.00
2022-10-02T17:19:04.343Z,100.00
2022-10-02T17:22:27.524Z,100.00
2022-10-02T17:25:47.428Z,100.00
2022-10-02T17:29:06.506Z,100.00
2022-10-02T17:32:18.818Z,100.00
2022-10-02T17:35:55.510Z,100.00
2022-10-02T17:39:28.487Z,100.00
2022-10-02T17:42:53.678Z,100.00
2022-10-02T17:46:14.319Z,100.00
2022-10-02T17:49:35.648Z,100.00
2022-10-02T17:53:06.493Z,100.00
2022-10-02T17:56:46.923Z,100.00
2022-10-02T18:00:25.868Z,100.00
2022-10-02T18:03:51.915Z,100.00
2022-10-02T18:07:19.164Z,100.00
2022-10-02T18:10:38.497Z,100.00
2022-10-02T18:14:05.999Z,100.00
2022-10-02T18:17:21.081Z,100.00
2022-10-02T18:20:40.626Z,100.00
2022-10-02T18:24:21.628Z,100.00
2022-10-02T18:27:49.768Z,100.00
2022-10-02T18:31:12.699Z,100.00
2022-10-02T18:34:43.967Z,100.00
2022-10-02T18:38:19.934Z,100.00
2022-10-02T18:41:50.343Z,100.00
2022-10-02T18:45:10.124Z,100.00
2022-10-02T18:48:43.048Z,100.00
2022-10-02T18:52:34.414Z,100.00
2022-10-02T18:56:05.158Z,100.00
2022-10-02T18:59:25.840Z,100.00
2022-10-02T19:02:53.652Z,100.00
2022-10-02T19:06:16.847Z,100.00
2022-10-02T19:09:34.485Z,100.00
2022-10-02T19:12:49.721Z,100.00
2022-10-02T19:16:03.665Z,100.00
2022-10-02T19:19:25.392Z,100.00
2022-10-02T19:22:41.623Z,100.00
2022-10-02T19:25:57.155Z,100.00
2022-10-02T19:29:19.873Z,100.00
2022-10-02T19:32:36.811Z,100.00
2022-10-02T19:35:51.828Z,100.00
2022-10-02T19:39:10.465Z,100.00
2022-10-02T19:42:28.738Z,100.00
2022-10-02T19:45:44.213Z,100.00
2022-10-02T19:49:01.958Z,100.00
2022-10-02T19:52:43.801Z,100.00
2022-10-02T19:55:59.807Z,100.00
2022-10-02T19:59:18.599Z,100.00
2022-10-02T20:02:34.168Z,100.00
2022-10-02T20:05:47.883Z,100.00
2022-10-02T20:09:05.746Z,100.00
2022-10-02T20:12:22.963Z,100.00
2022-10-02T20:15:55.855Z,100.00
2022-10-02T20:19:08.196Z,100.00
2022-10-02T20:22:35.905Z,100.00
2022-10-02T20:25:55.444Z,100.00
2022-10-02T20:29:12.570Z,100.00
2022-10-02T20:32:25.158Z,100.00
2022-10-02T20:35:43.736Z,100.00
2022-10-02T20:39:01.621Z,100.00
2022-10-02T20:42:19.976Z,100.00
2022-10-02T20:45:39.066Z,100.00
2022-10-02T20:49:13.333Z,100.00
2022-10-02T20:52:50.677Z,100.00
2022-10-02T20:56:11.018Z,100.00
2022-10-02T21:00:01.889Z,100.00
2022-10-02T21:03:56.768Z,100.00
2022-10-02T21:08:07.579Z,100.00
2022-10-02T21:11:47.264Z,100.00
2022-10-02T21:15:26.654Z,100.00
2022-10-02T21:19:12.585Z,100.00
2022-10-02T21:22:57.444Z,100.00
2022-10-02T21:27:02.404Z,100.00
2022-10-02T21:30:22.119Z,100.00
2022-10-02T21:33:38.676Z,100.00
2022-10-02T21:36:58.605Z,100.00
2022-10-02T21:40:55.762Z,100.00
2022-10-02T21:44:54.920Z,100.00
2022-10-02T21:49:01.610Z,100.00
2022-10-02T21:53:11.772Z,100.00
2022-10-02T21:57:09.345Z,100.00
2022-10-02T22:00:25.877Z,100.00
2022-10-02T22:04:16.182Z,100.00
2022-10-02T22:07:33.198Z,100.00
2022-10-02T22:10:47.514Z,100.00
2022-10-02T22:14:03.473Z,100.00
2022-10-02T22:17:25.656Z,100.00
2022-10-02T22:20:59.660Z,100.00
2022-10-02T22:24:40.654Z,100.00
2022-10-02T22:28:20.717Z,100.00
2022-10-02T22:32:03.224Z,100.00
2022-10-02T22:35:21.868Z,100.00
2022-10-02T22:38:38.113Z,100.00
2022-10-02T22:42:00.578Z,100.00
2022-10-02T22:45:19.422Z,100.00
2022-10-02T22:48:41.883Z,100.00
2022-10-02T22:52:01.318Z,100.00
2022-10-02T22:55:19.445Z,100.00
2022-10-02T22:58:42.557Z,100.00
2022-10-02T23:02:00.396Z,100.00
2022-10-02T23:05:18.315Z,100.00
2022-10-02T23:08:35.986Z,100.00
2022-10-02T23:11:52.963Z,100.00
2022-10-02T23:15:19.173Z,100.00
2022-10-02T23:18:45.084Z,100.00
2022-10-02T23:22:01.534Z,100.00
2022-10-02T23:25:23.906Z,100.00
2022-10-02T23:28:41.391Z,100.00
2022-10-02T23:32:02.991Z,100.00
2022-10-02T23:35:20.500Z,100.00
2022-10-02T23:38:40.498Z,100.00
2022-10-02T23:41:55.991Z,100.00
2022-10-02T23:45:14.983Z,100.00
2022-10-02T23:48:27.264Z,100.00
2022-10-02T23:51:48.523Z,100.00
2022-10-02T23:55:14.176Z,100.00
2022-10-02T23:58:59.599Z,100.00
